Time;durP1;ratioP1;P1;durP2;ratioP2;P2;SDS_P1;SDS_P2;PMS_P1;PMS_P2;Temp;Humidity;BMP_temperature;BMP_pressure;BME280_temperature;BME280_humidity;BME280_pressure;Samples;Min_cycle;Max_cycle;Signal;HPM_P1;HPM_P2
2023/07/11 00:00:55;;;;;;;8.23;2.63;;;18.50;99.90;;;18.04;100.00;101343.75;4168437;28;20543;-73
2023/07/11 00:02:55;;;;;;;8.90;4.10;;;18.50;99.90;;;18.03;100.00;101336.75;4168549;28;20026;-73
2023/07/11 00:05:04;;;;;;;5.80;2.42;;;18.50;99.90;;;18.03;100.00;101337.56;4168337;28;20032;-73
2023/07/11 00:07:05;;;;;;;7.25;2.95;;;18.50;99.90;;;18.05;100.00;101342.69;4163921;28;20030;-73
2023/07/11 00:09:06;;;;;;;7.13;2.78;;;18.50;99.90;;;18.07;100.00;101333.47;4167039;28;20026;-74
2023/07/11 00:11:10;;;;;;;6.93;2.70;;;18.60;99.90;;;18.13;100.00;101329.22;4168585;28;20030;-73
2023/07/11 00:13:11;;;;;;;5.28;3.05;;;18.60;99.90;;;18.20;100.00;101327.44;4167403;28;20036;-73
2023/07/11 00:15:15;;;;;;;8.20;2.92;;;18.70;99.90;;;18.30;100.00;101324.47;4168500;28;20030;-73
2023/07/11 00:17:16;;;;;;;6.47;2.42;;;18.80;99.90;;;18.37;100.00;101320.00;4166820;28;20116;-74
2023/07/11 00:19:19;;;;;;;6.60;2.38;;;18.80;99.90;;;18.52;100.00;101326.09;4150797;28;20413;-73
2023/07/11 00:21:20;;;;;;;7.43;2.83;;;18.90;99.90;;;18.55;100.00;101329.22;4168270;28;20073;-73
2023/07/11 00:23:21;;;;;;;5.68;2.30;;;19.00;99.90;;;18.60;100.00;101324.13;4168350;28;20386;-74
2023/07/11 00:25:22;;;;;;;5.72;1.98;;;19.00;99.90;;;18.55;100.00;101326.53;4167062;28;20080;-73
2023/07/11 00:27:23;;;;;;;6.43;2.63;;;19.00;99.90;;;18.44;100.00;101312.88;4168455;28;20044;-73
2023/07/11 00:29:24;;;;;;;6.75;2.38;;;19.00;99.90;;;18.42;100.00;101325.59;4167004;28;20025;-73
2023/07/11 00:31:25;;;;;;;9.00;2.60;;;18.90;99.90;;;18.32;100.00;101307.22;4168404;28;20099;-73
2023/07/11 00:33:26;;;;;;;8.10;2.67;;;18.80;99.90;;;18.29;100.00;101320.97;4150562;28;20026;-73
2023/07/11 00:35:28;;;;;;;9.52;3.15;;;18.80;99.90;;;18.29;100.00;101312.13;4167042;28;20060;-73
2023/07/11 00:37:29;;;;;;;5.70;2.55;;;18.80;99.90;;;18.31;100.00;101308.22;4168310;28;20054;-73
2023/07/11 00:39:32;;;;;;;6.68;2.10;;;18.80;99.90;;;18.27;100.00;101312.31;4168331;28;20029;-73
2023/07/11 00:41:33;;;;;;;7.95;2.63;;;18.80;99.90;;;18.24;100.00;101299.34;4168392;28;20512;-73
2023/07/11 00:43:34;;;;;;;4.55;2.25;;;18.70;99.90;;;18.25;100.00;101306.31;4167164;28;20109;-73
2023/07/11 00:46:12;;;;;;;7.60;3.15;;;18.70;99.90;;;18.23;100.00;101306.53;4168350;28;20034;-73
2023/07/11 00:48:13;;;;;;;7.47;2.67;;;18.70;99.90;;;18.19;100.00;101297.25;4170066;28;20033;-73
2023/07/11 00:50:14;;;;;;;7.60;3.03;;;18.70;99.90;;;18.22;100.00;101291.50;4171250;28;20389;-73
2023/07/11 00:52:18;;;;;;;6.60;2.40;;;18.60;99.90;;;18.19;100.00;101291.06;4171430;28;20033;-73
2023/07/11 00:54:26;;;;;;;8.60;2.40;;;18.60;99.90;;;18.17;100.00;101285.94;4170261;28;20503;-73
2023/07/11 00:56:32;;;;;;;7.47;2.65;;;18.60;99.90;;;18.15;100.00;101289.81;4170090;28;20100;-73
2023/07/11 00:58:38;;;;;;;7.93;3.50;;;18.60;99.90;;;18.11;100.00;101286.69;4171256;28;20037;-73
2023/07/11 01:00:38;;;;;;;8.27;3.15;;;18.60;99.90;;;18.11;100.00;101289.38;4171138;28;20040;-73
2023/07/11 01:02:39;;;;;;;5.50;2.65;;;18.60;99.90;;;18.06;100.00;101282.97;4169711;28;20047;-73
2023/07/11 01:04:40;;;;;;;9.93;3.47;;;18.60;99.90;;;18.02;100.00;101271.84;4170895;28;20028;-73
2023/07/11 01:06:41;;;;;;;8.82;2.88;;;18.50;99.90;;;18.04;100.00;101271.66;4169976;28;20074;-73
2023/07/11 01:08:45;;;;;;;6.63;2.65;;;18.50;99.90;;;18.00;100.00;101259.69;4170960;28;20037;-73
2023/07/11 01:10:46;;;;;;;6.13;2.80;;;18.50;99.90;;;17.99;100.00;101266.88;4170872;28;20511;-73
2023/07/11 01:12:48;;;;;;;8.10;2.70;;;18.50;99.90;;;17.98;100.00;101267.88;4171076;28;20029;-74
2023/07/11 01:14:50;;;;;;;7.88;2.60;;;18.50;99.90;;;18.00;100.00;101262.38;4170007;28;20021;-73
2023/07/11 01:16:52;;;;;;;9.30;2.80;;;18.50;99.90;;;17.98;100.00;101264.41;4186076;28;20071;-73
2023/07/11 01:18:53;;;;;;;9.40;2.58;;;18.50;99.90;;;18.02;100.00;101271.00;4153100;28;20033;-73
2023/07/11 01:20:54;;;;;;;8.15;2.97;;;18.50;99.90;;;17.97;100.00;101258.25;4170538;28;20514;-73
2023/07/11 01:22:55;;;;;;;8.90;3.50;;;18.50;99.90;;;17.93;100.00;101261.47;4170734;28;20033;-73
2023/07/11 01:25:12;;;;;;;8.30;2.92;;;18.40;99.90;;;17.95;100.00;101259.47;4169581;28;20052;-73
2023/07/11 01:27:13;;;;;;;8.05;3.08;;;18.40;99.90;;;17.91;100.00;101255.50;4170371;28;20026;-73
2023/07/11 01:29:14;;;;;;;8.55;2.90;;;18.40;99.90;;;17.90;100.00;101238.66;4170804;28;20468;-73
2023/07/11 01:31:15;;;;;;;9.57;2.60;;;18.40;99.90;;;17.89;100.00;101250.34;4169490;28;20021;-73
2023/07/11 01:33:16;;;;;;;7.95;2.85;;;18.40;99.90;;;17.88;100.00;101253.22;4170574;28;20025;-73
2023/07/11 01:35:17;;;;;;;6.57;3.30;;;18.40;99.90;;;17.88;100.00;101247.88;4170464;28;20018;-73
2023/07/11 01:37:18;;;;;;;7.43;2.30;;;18.40;99.90;;;17.87;100.00;101240.88;4169514;28;20026;-73
2023/07/11 01:39:19;;;;;;;8.95;2.90;;;18.40;99.90;;;17.86;100.00;101240.03;4170754;28;20029;-73
2023/07/11 01:41:20;;;;;;;7.45;3.33;;;18.30;99.90;;;17.83;100.00;101236.97;4169276;28;20033;-73
2023/07/11 01:43:21;;;;;;;9.35;3.30;;;18.30;99.90;;;17.84;100.00;101242.09;4170424;28;20463;-73
2023/07/11 01:45:22;;;;;;;11.15;3.05;;;18.30;99.90;;;17.82;100.00;101235.28;4170683;28;20029;-73
2023/07/11 01:47:23;;;;;;;8.98;2.50;;;18.30;99.90;;;17.80;100.00;101229.34;4170609;28;20516;-73
2023/07/11 01:49:24;;;;;;;10.77;3.63;;;18.30;99.90;;;17.78;100.00;101234.84;4170327;28;20033;-73
2023/07/11 01:51:25;;;;;;;9.68;3.03;;;18.20;99.90;;;17.75;100.00;101226.38;4170212;28;20501;-73
2023/07/11 01:53:26;;;;;;;7.22;2.80;;;18.20;99.90;;;17.72;100.00;101226.78;4170476;28;20038;-73
2023/07/11 01:55:26;;;;;;;5.32;3.45;;;18.20;99.90;;;17.72;100.00;101237.44;4169329;28;20022;-73
2023/07/11 01:57:27;;;;;;;5.78;2.75;;;18.20;99.90;;;17.65;100.00;101224.06;4169131;28;20520;-73
2023/07/11 01:59:28;;;;;;;10.68;3.13;;;18.20;99.90;;;17.63;100.00;101221.56;4168925;28;20064;-73
2023/07/11 02:01:30;;;;;;;10.10;2.85;;;18.20;99.90;;;17.59;100.00;101217.63;4169107;28;20026;-73
2023/07/11 02:03:30;;;;;;;12.35;3.20;;;18.10;99.90;;;17.63;100.00;101226.91;4170178;28;20025;-73
2023/07/11 02:05:31;;;;;;;6.63;3.03;;;18.10;99.90;;;17.60;100.00;101215.78;4169963;28;20122;-73
2023/07/11 02:07:32;;;;;;;8.27;3.30;;;18.10;99.90;;;17.58;100.00;101215.16;4169969;28;20393;-73
2023/07/11 02:09:34;;;;;;;4.97;2.75;;;18.10;99.90;;;17.55;100.00;101211.03;4170109;28;20040;-73
2023/07/11 02:11:35;;;;;;;9.55;3.25;;;18.10;99.90;;;17.58;100.00;101212.50;4168866;28;20024;-73
2023/07/11 02:13:36;;;;;;;8.07;2.75;;;18.10;99.90;;;17.54;100.00;101209.38;4169975;28;20029;-73
2023/07/11 02:15:37;;;;;;;6.13;2.63;;;18.10;99.90;;;17.62;100.00;101201.22;4169827;28;20101;-73
2023/07/11 02:17:38;;;;;;;9.77;3.00;;;18.10;99.90;;;17.67;100.00;101201.50;4170050;28;20026;-73
2023/07/11 02:19:38;;;;;;;12.05;2.83;;;18.20;99.90;;;17.79;100.00;101201.81;4168240;28;20134;-74
2023/07/11 02:21:40;;;;;;;9.38;3.00;;;18.30;99.90;;;17.86;100.00;101201.88;4168844;28;20033;-73
2023/07/11 02:23:41;;;;;;;7.40;2.85;;;18.30;99.90;;;17.90;100.00;101208.47;4167891;28;20120;-73
2023/07/11 02:25:42;;;;;;;5.65;3.05;;;18.30;99.90;;;17.87;100.00;101201.69;4169899;28;20030;-73
2023/07/11 02:27:43;;;;;;;8.80;2.90;;;18.30;99.90;;;17.83;100.00;101195.06;4169838;28;20032;-73
2023/07/11 02:29:44;;;;;;;12.75;3.58;;;18.30;99.90;;;17.79;100.00;101195.66;4169628;28;20041;-73
2023/07/11 02:31:45;;;;;;;10.20;2.90;;;18.30;99.90;;;17.76;100.00;101196.03;4168484;28;20030;-73
2023/07/11 02:33:49;;;;;;;10.15;3.20;;;18.20;99.90;;;17.70;100.00;101192.28;4169905;28;20029;-74
2023/07/11 02:35:49;;;;;;;9.20;2.80;;;18.20;99.90;;;17.64;100.00;101193.88;4169496;28;20108;-73
2023/07/11 02:37:51;;;;;;;8.38;3.10;;;18.10;99.90;;;17.63;100.00;101189.56;4169747;28;20389;-73
2023/07/11 02:39:52;;;;;;;8.30;2.90;;;18.10;99.90;;;17.60;100.00;101191.78;4169559;28;20057;-73
2023/07/11 02:41:53;;;;;;;6.53;2.97;;;18.10;99.90;;;17.58;100.00;101183.97;4169725;28;20400;-73
2023/07/11 02:43:54;;;;;;;8.32;2.95;;;18.10;99.90;;;17.55;100.00;101181.69;4169546;28;20068;-74
2023/07/11 02:45:55;;;;;;;10.10;3.83;;;18.00;99.90;;;17.51;100.00;101171.53;4169527;28;20033;-73
2023/07/11 02:47:56;;;;;;;10.57;3.72;;;18.00;99.90;;;17.49;100.00;101170.91;4169366;28;20030;-73
2023/07/11 02:49:57;;;;;;;11.88;3.40;;;18.10;99.90;;;17.51;100.00;101172.38;4151481;28;20440;-73
2023/07/11 02:51:58;;;;;;;7.40;2.95;;;18.00;99.90;;;17.50;100.00;101180.59;4168338;28;20045;-73
2023/07/11 02:53:59;;;;;;;13.82;3.40;;;18.00;99.90;;;17.47;100.00;101172.97;4169543;28;20071;-73
2023/07/11 02:55:59;;;;;;;12.73;3.75;;;18.00;99.90;;;17.44;100.00;101162.66;4169314;28;20021;-73
2023/07/11 02:58:00;;;;;;;7.45;3.35;;;17.90;99.90;;;17.45;100.00;101165.13;4168247;28;20076;-73
2023/07/11 03:00:02;;;;;;;12.40;3.58;;;17.90;99.90;;;17.45;100.00;101156.31;4169363;28;20029;-74
2023/07/11 03:02:03;;;;;;;8.15;3.45;;;17.90;99.90;;;17.42;100.00;101154.84;4168071;28;20121;-73
2023/07/11 03:04:04;;;;;;;11.40;4.75;;;17.90;99.90;;;17.42;100.00;101152.19;4167645;28;20084;-73
2023/07/11 03:06:05;;;;;;;6.57;3.85;;;17.90;99.90;;;17.40;100.00;101151.56;4167856;28;20021;-73
2023/07/11 03:08:06;;;;;;;6.28;3.60;;;17.90;99.90;;;17.37;100.00;101143.94;4168089;28;20112;-73
2023/07/11 03:10:07;;;;;;;8.05;3.45;;;17.90;99.90;;;17.44;100.00;101152.81;4167466;28;20033;-73
2023/07/11 03:12:09;;;;;;;9.93;4.28;;;17.90;99.90;;;17.36;100.00;101144.09;4169033;28;20033;-73
2023/07/11 03:14:10;;;;;;;8.98;4.35;;;17.90;99.90;;;17.35;100.00;101153.94;4167829;28;20481;-73
2023/07/11 03:16:11;;;;;;;9.38;3.50;;;17.80;99.90;;;17.32;100.00;101148.19;4167956;28;20083;-73
2023/07/11 03:18:13;;;;;;;7.03;3.80;;;17.80;99.90;;;17.32;100.00;101143.69;4169058;28;20025;-73
2023/07/11 03:20:14;;;;;;;10.48;3.95;;;17.80;99.90;;;17.33;100.00;101147.97;4168661;28;20401;-73
2023/07/11 03:22:49;;;;;;;5.53;3.47;;;17.80;99.90;;;17.30;100.00;101143.03;4169005;28;20033;-73
2023/07/11 03:24:50;;;;;;;10.15;4.40;;;17.80;99.90;;;17.28;100.00;101146.91;4168863;28;20025;-73
2023/07/11 03:26:52;;;;;;;7.70;3.58;;;17.80;99.90;;;17.26;100.00;101138.28;4168803;28;20108;-73
2023/07/11 03:28:53;;;;;;;10.60;3.53;;;17.70;99.90;;;17.15;100.00;101129.75;4167484;28;20037;-73
2023/07/11 03:30:54;;;;;;;10.02;5.25;;;17.70;99.90;;;17.21;100.00;101141.50;4168905;28;20531;-73
2023/07/11 03:32:55;;;;;;;10.30;4.35;;;17.70;99.90;;;17.21;100.00;101143.34;4167716;28;20017;-73
2023/07/11 03:34:55;;;;;;;6.47;3.65;;;17.70;99.90;;;17.17;100.00;101143.72;4168506;28;20423;-73
2023/07/11 03:36:56;;;;;;;7.32;4.03;;;17.70;99.90;;;17.16;100.00;101141.25;4167599;28;20060;-73
2023/07/11 03:38:57;;;;;;;13.85;4.28;;;17.60;99.90;;;17.14;100.00;101138.75;4159315;28;20032;-73
2023/07/11 03:40:58;;;;;;;8.40;4.03;;;17.60;99.90;;;17.08;100.00;101128.03;4168717;28;20025;-73
2023/07/11 03:42:59;;;;;;;8.48;3.75;;;17.60;99.90;;;17.06;100.00;101135.38;4167599;28;20022;-73
2023/07/11 03:45:00;;;;;;;6.70;3.60;;;17.60;99.90;;;17.05;100.00;101141.75;4167641;28;20109;-73
2023/07/11 03:47:01;;;;;;;7.22;3.72;;;17.60;99.90;;;17.03;100.00;101138.44;4167623;28;20059;-73
2023/07/11 03:49:02;;;;;;;9.73;3.92;;;17.50;99.90;;;17.03;100.00;101141.09;4167265;28;20495;-73
2023/07/11 03:51:03;;;;;;;9.80;3.88;;;17.50;99.90;;;16.97;100.00;101136.50;4168682;28;20060;-73
2023/07/11 03:53:04;;;;;;;9.82;4.15;;;17.50;99.90;;;16.96;100.00;101134.88;4167493;28;20026;-73
2023/07/11 03:55:05;;;;;;;5.70;3.45;;;17.50;99.90;;;16.92;100.00;101129.09;4167511;28;20057;-73
2023/07/11 03:57:06;;;;;;;8.32;4.38;;;17.40;99.90;;;16.91;100.00;101139.94;4168623;28;20025;-73
2023/07/11 03:59:07;;;;;;;7.47;4.18;;;17.40;99.90;;;16.87;100.00;101125.34;4167385;28;20382;-73
2023/07/11 04:01:08;;;;;;;10.80;4.47;;;17.30;99.90;;;16.89;100.00;101133.97;4168278;28;20030;-73
2023/07/11 04:03:09;;;;;;;10.38;3.90;;;17.30;99.90;;;16.86;100.00;101129.84;4168797;28;20028;-73
2023/07/11 04:05:10;;;;;;;8.20;3.92;;;17.30;99.90;;;16.86;100.00;101134.34;4167151;28;20037;-73
2023/07/11 04:07:11;;;;;;;12.05;4.32;;;17.30;99.90;;;16.80;100.00;101127.94;4183665;28;20029;-73
2023/07/11 04:09:12;;;;;;;7.60;4.10;;;17.30;99.90;;;16.79;100.00;101125.44;4168310;28;20121;-73
2023/07/11 04:11:13;;;;;;;13.02;5.10;;;17.30;99.90;;;16.79;100.00;101123.59;4168541;28;20484;-73
2023/07/11 04:13:14;;;;;;;13.73;5.07;;;17.30;99.90;;;16.86;100.00;101126.34;4167182;28;20053;-73
2023/07/11 04:15:15;;;;;;;11.93;5.70;;;17.30;99.90;;;16.86;100.00;101121.03;4167341;28;20029;-73
2023/07/11 04:17:16;;;;;;;8.75;4.20;;;17.40;99.90;;;16.88;100.00;101121.66;4167067;28;20025;-73
2023/07/11 04:19:17;;;;;;;9.50;5.10;;;17.40;99.90;;;16.89;100.00;101124.13;4168330;28;20075;-74
2023/07/11 04:21:18;;;;;;;9.35;4.78;;;17.40;99.90;;;16.93;100.00;101127.25;4167743;28;20555;-73
2023/07/11 04:23:19;;;;;;;10.20;5.05;;;17.40;99.90;;;16.89;100.00;101117.97;4171552;28;20029;-73
2023/07/11 04:25:20;;;;;;;11.25;4.43;;;17.40;99.90;;;16.91;100.00;101123.94;4171751;28;20026;-74
2023/07/11 04:27:20;;;;;;;11.02;4.53;;;17.40;99.90;;;16.90;100.00;101123.13;4171686;28;20026;-74
2023/07/11 04:29:21;;;;;;;10.75;5.80;;;17.40;99.90;;;16.92;100.00;101120.28;4171445;28;20056;-74
2023/07/11 04:31:22;;;;;;;10.88;5.85;;;17.40;99.90;;;16.92;100.00;101128.25;4171652;28;20122;-74
2023/07/11 04:33:23;;;;;;;14.60;5.18;;;17.40;99.90;;;16.88;100.00;101116.31;4171444;28;20021;-74
2023/07/11 04:35:24;;;;;;;10.45;4.45;;;17.40;99.90;;;16.93;100.00;101124.59;4169670;28;20025;-74
2023/07/11 04:37:25;;;;;;;8.00;4.38;;;17.40;99.90;;;16.96;100.00;101118.88;4171513;28;20563;-74
2023/07/11 04:39:26;;;;;;;11.90;4.63;;;17.40;99.90;;;17.06;100.00;101120.22;4171532;28;20037;-74
2023/07/11 04:41:27;;;;;;;10.23;4.90;;;17.50;99.90;;;17.21;100.00;101122.84;4171352;28;20029;-74
2023/07/11 04:43:29;;;;;;;12.38;4.88;;;17.60;99.90;;;17.32;100.00;101119.69;4170283;28;20025;-73
2023/07/11 04:45:30;;;;;;;12.00;5.35;;;17.70;99.90;;;17.46;100.00;101125.94;4162404;28;20029;-73
2023/07/11 04:47:31;;;;;;;13.38;5.40;;;17.90;99.90;;;17.55;100.00;101112.34;4171485;28;20021;-73
2023/07/11 04:49:32;;;;;;;8.15;4.20;;;18.00;99.90;;;17.63;100.00;101112.19;4171210;28;20030;-74
2023/07/11 04:51:33;;;;;;;9.32;4.22;;;18.10;99.90;;;17.78;100.00;101119.28;4170235;28;20029;-74
2023/07/11 04:53:34;;;;;;;10.43;4.32;;;18.20;99.90;;;17.83;100.00;101111.53;4170070;28;20462;-74
2023/07/11 04:55:35;;;;;;;9.13;4.03;;;18.30;99.90;;;17.94;100.00;101116.31;4170156;28;20021;-73
2023/07/11 04:57:36;;;;;;;14.05;5.20;;;18.40;99.90;;;17.99;100.00;101120.06;4169964;28;20540;-74
2023/07/11 04:59:37;;;;;;;12.15;4.35;;;18.50;99.90;;;18.05;100.00;101111.25;4170201;28;20030;-74
2023/07/11 05:01:38;;;;;;;11.95;4.70;;;18.60;99.90;;;18.14;100.00;101110.09;4171249;28;20021;-74
2023/07/11 05:03:39;;;;;;;9.45;4.00;;;18.60;99.90;;;18.23;100.00;101113.44;4169958;28;20040;-74
2023/07/11 05:05:40;;;;;;;10.85;4.82;;;18.70;99.90;;;18.29;100.00;101106.47;4202667;28;20388;-74
2023/07/11 05:07:41;;;;;;;10.65;4.43;;;18.80;99.90;;;18.36;100.00;101110.84;4169342;28;20034;-74
2023/07/11 05:09:42;;;;;;;8.95;3.70;;;18.80;99.90;;;18.45;100.00;101112.31;4168961;28;20037;-74
2023/07/11 05:11:43;;;;;;;9.63;3.80;;;18.90;99.90;;;18.54;100.00;101111.16;4169100;28;20033;-74
2023/07/11 05:13:47;;;;;;;9.35;3.83;;;19.00;99.90;;;18.66;100.00;101108.75;4169641;28;20075;-74
2023/07/11 05:15:47;;;;;;;;;;;19.10;99.90;;;18.70;100.00;101113.47;4170286;28;20033;-74
2023/07/11 05:17:48;;;;;;;7.75;3.25;;;19.10;99.90;;;18.77;100.00;101114.34;4170982;28;19916;-74
2023/07/11 05:19:49;;;;;;;8.75;3.65;;;19.20;99.90;;;18.73;100.00;101110.41;4170487;28;20080;-74
2023/07/11 05:21:50;;;;;;;6.00;3.55;;;19.10;99.90;;;18.65;100.00;101113.25;4169653;28;20021;-75
2023/07/11 05:23:51;;;;;;;7.45;3.17;;;19.10;99.90;;;18.54;100.00;101102.31;4170463;28;20397;-74
2023/07/11 05:25:54;;;;;;;10.68;3.25;;;19.00;99.90;;;18.45;100.00;101101.63;4153674;28;20073;-74
2023/07/11 05:27:55;;;;;;;17.10;5.63;;;18.90;99.90;;;18.34;100.00;101093.38;4170819;28;20512;-74
2023/07/11 05:29:55;;;;;;;9.88;3.72;;;18.90;99.90;;;18.33;100.00;101102.38;4170596;28;20029;-74
2023/07/11 05:31:56;;;;;;;7.53;3.83;;;18.80;99.90;;;18.30;100.00;101100.13;4168988;28;20515;-74
2023/07/11 05:33:58;;;;;;;13.32;4.10;;;18.80;99.90;;;18.27;100.00;101097.84;4170526;28;20025;-74
2023/07/11 05:36:30;;;;;;;8.20;3.85;;;18.70;99.90;;;18.27;100.00;101109.34;4169301;28;20063;-74
2023/07/11 05:38:32;;;;;;;8.38;4.10;;;18.70;99.90;;;18.32;100.00;101106.91;4170699;28;20397;-74
2023/07/11 05:40:33;;;;;;;15.63;5.05;;;18.80;99.90;;;18.44;100.00;101101.81;4169568;28;20029;-73
2023/07/11 05:42:34;;;;;;;16.08;4.72;;;18.80;99.90;;;18.57;100.00;101099.25;4170553;28;20052;-74
2023/07/11 05:44:35;;;;;;;13.13;5.05;;;18.90;99.90;;;18.74;100.00;101112.06;4169402;28;20040;-74
2023/07/11 05:46:36;;;;;;;8.55;3.97;;;19.00;99.90;;;18.91;100.00;101112.53;4169323;28;20033;-74
2023/07/11 05:48:37;;;;;;;14.70;4.18;;;19.20;99.90;;;19.02;100.00;101095.09;4170472;28;20021;-73
2023/07/11 05:50:38;;;;;;;8.35;3.30;;;19.30;99.90;;;19.10;100.00;101105.56;4152563;28;20034;-74
2023/07/11 05:52:39;;;;;;;9.57;4.40;;;19.40;99.90;;;19.05;100.00;101102.69;4169164;28;20044;-74
2023/07/11 05:54:39;;;;;;;8.85;4.65;;;19.40;99.90;;;18.94;100.00;101097.91;4170537;28;20029;-74
2023/07/11 05:56:41;;;;;;;9.00;3.60;;;19.30;99.90;;;18.86;100.00;101098.94;4170206;28;20397;-74
2023/07/11 05:58:44;;;;;;;10.82;4.15;;;19.30;99.90;;;18.75;100.00;101100.34;4152835;28;20029;-74
2023/07/11 06:00:45;;;;;;;7.07;3.20;;;19.20;99.90;;;18.72;100.00;101100.75;4169077;28;20104;-74
2023/07/11 06:02:46;;;;;;;11.77;3.95;;;19.10;99.90;;;18.66;100.00;101088.19;4170219;28;20033;-74
2023/07/11 06:04:47;;;;;;;8.98;3.40;;;19.10;99.90;;;18.66;100.00;101090.88;4152303;28;20026;-74
2023/07/11 06:06:49;;;;;;;8.38;3.88;;;19.10;99.90;;;18.63;100.00;101087.78;4170180;28;20040;-74
2023/07/11 06:08:50;;;;;;;6.32;3.40;;;19.10;99.90;;;18.60;100.00;101083.66;4170204;28;20024;-73
2023/07/11 06:10:51;;;;;;;5.88;2.88;;;19.10;99.90;;;18.63;100.00;101085.94;4170212;28;20029;-74
2023/07/11 06:12:52;;;;;;;8.63;3.50;;;19.10;99.90;;;18.68;100.00;101090.66;4168968;28;20025;-74
2023/07/11 06:14:52;;;;;;;6.57;2.53;;;19.10;99.90;;;18.66;100.00;101079.34;4168744;28;20033;-74
2023/07/11 06:16:53;;;;;;;5.30;2.70;;;19.10;99.90;;;18.71;100.00;101080.41;4168757;28;20469;-74
2023/07/11 06:18:55;;;;;;;6.05;2.90;;;19.20;99.90;;;18.86;100.00;101084.75;4168079;28;20029;-74
2023/07/11 06:20:56;;;;;;;7.53;3.40;;;19.20;99.90;;;18.89;100.00;101079.81;4169870;28;20424;-74
2023/07/11 06:22:59;;;;;;;9.70;3.00;;;19.30;99.90;;;18.95;100.00;101083.53;4169782;28;20025;-74
2023/07/11 06:24:59;;;;;;;5.45;2.15;;;19.30;99.90;;;18.92;100.00;101070.56;4169847;28;20021;-74
2023/07/11 06:27:01;;;;;;;4.28;2.55;;;19.40;99.90;;;19.05;100.00;101092.00;4154376;28;20402;-74
2023/07/11 06:29:02;;;;;;;7.68;2.58;;;19.40;99.90;;;19.17;100.00;101087.72;4169808;28;20024;-74
2023/07/11 06:31:03;;;;;;;8.57;2.45;;;19.50;99.90;;;19.36;100.00;101078.84;4169768;28;20488;-74
2023/07/11 06:33:04;;;;;;;6.63;2.08;;;19.70;99.90;;;19.72;100.00;101084.66;4168595;28;20024;-74
2023/07/11 06:35:06;;;;;;;7.35;2.03;;;19.90;99.90;;;20.02;100.00;101076.16;4168168;28;20432;-74
2023/07/11 06:37:06;;;;;;;6.90;1.90;;;20.20;99.90;;;20.28;100.00;101078.81;4168419;28;20022;-74
2023/07/11 06:39:07;;;;;;;4.60;2.03;;;20.40;99.90;;;20.60;100.00;101088.59;4152226;28;20033;-74
2023/07/11 06:41:08;;;;;;;5.10;2.35;;;20.70;99.90;;;20.82;100.00;101081.88;4168440;28;20021;-74
2023/07/11 06:43:09;;;;;;;4.72;1.52;;;20.90;99.90;;;21.12;100.00;101086.66;4169082;28;20029;-74
2023/07/11 06:45:10;;;;;;;4.28;1.42;;;21.20;99.90;;;21.26;100.00;101077.50;4168699;28;20500;-74
2023/07/11 06:47:11;;;;;;;4.72;1.50;;;21.40;99.90;;;21.48;100.00;101079.59;4168279;28;20022;-74
2023/07/11 06:49:12;;;;;;;4.45;1.75;;;21.60;99.90;;;21.82;100.00;101080.94;4169269;28;20033;-75
2023/07/11 06:51:13;;;;;;;5.07;1.50;;;21.90;99.90;;;21.83;100.00;101079.88;4168389;28;20025;-74
2023/07/11 06:53:13;;;;;;;6.85;2.47;;;22.10;99.90;;;21.72;100.00;101087.84;4168468;28;20087;-73
2023/07/11 06:55:14;;;;;;;4.57;1.23;;;22.10;99.90;;;21.77;100.00;101080.81;4169434;28;20060;-74
2023/07/11 06:57:17;;;;;;;4.75;1.42;;;22.10;99.90;;;21.73;100.00;101073.38;4167976;28;20017;-74
2023/07/11 06:59:21;;;;;;;3.80;0.88;;;22.10;99.90;;;21.86;100.00;101084.03;4200884;28;20025;-74
2023/07/11 07:01:22;;;;;;;2.88;1.00;;;22.20;99.90;;;21.92;100.00;101072.44;4169455;28;20458;-74
2023/07/11 07:03:24;;;;;;;2.78;1.10;;;22.20;99.90;;;22.07;100.00;101072.06;4168002;28;20084;-74
2023/07/11 07:05:25;;;;;;;2.25;0.95;;;22.40;99.90;;;22.30;100.00;101073.03;4184348;28;20511;-74
2023/07/11 07:07:26;;;;;;;2.75;1.30;;;22.50;99.90;;;22.26;100.00;101079.88;4169061;28;20033;-74
2023/07/11 07:09:26;;;;;;;3.08;0.90;;;22.50;99.90;;;22.26;100.00;101069.13;4169192;28;20030;-73
2023/07/11 07:11:27;;;;;;;3.20;1.00;;;22.60;99.90;;;22.38;100.00;101055.75;4167977;28;20511;-74
2023/07/11 07:13:29;;;;;;;6.85;1.60;;;22.70;99.90;;;22.63;100.00;101079.88;4169234;28;20088;-74
2023/07/11 07:15:30;;;;;;;5.57;1.85;;;22.80;99.90;;;22.74;100.00;101081.81;4167848;28;20523;-74
2023/07/11 07:17:31;;;;;;;3.47;1.13;;;22.90;99.90;;;22.59;100.00;101074.09;4169108;28;20025;-74
2023/07/11 07:19:32;;;;;;;3.30;1.05;;;22.80;99.90;;;22.51;100.00;101074.44;4168353;28;20033;-74
2023/07/11 07:21:33;;;;;;;5.93;1.30;;;22.90;99.90;;;22.60;100.00;101070.38;4151215;28;20502;-74
2023/07/11 07:23:34;;;;;;;4.22;1.33;;;22.90;99.90;;;22.56;100.00;101072.69;4167391;28;20045;-74
2023/07/11 07:25:36;;;;;;;2.85;0.85;;;22.90;99.90;;;22.53;100.00;101070.47;4169071;28;20021;-74
2023/07/11 07:27:37;;;;;;;4.25;1.20;;;22.90;99.90;;;22.34;100.00;101062.66;4167753;28;20033;-74
2023/07/11 07:29:38;;;;;;;5.63;1.23;;;22.70;99.90;;;22.15;100.00;101061.00;4167667;28;20049;-74
2023/07/11 07:31:38;;;;;;;2.42;1.00;;;22.60;99.90;;;22.01;100.00;101071.09;4167592;28;20029;-74
2023/07/11 07:33:40;;;;;;;5.47;1.10;;;22.50;99.90;;;21.88;100.00;101061.28;4167669;28;20032;-74
2023/07/11 07:35:43;;;;;;;2.28;0.73;;;22.40;99.90;;;21.84;100.00;101061.91;4168748;28;20033;-74
2023/07/11 07:37:43;;;;;;;3.25;0.85;;;22.40;99.90;;;21.62;100.00;101050.78;4168795;28;20033;-73
2023/07/11 07:39:44;;;;;;;4.35;1.35;;;22.20;99.90;;;21.61;100.00;101054.50;4167702;28;20037;-74
2023/07/11 07:41:45;;;;;;;2.75;1.23;;;22.20;99.90;;;21.60;100.00;101055.53;4167691;28;20033;-73
2023/07/11 07:43:46;;;;;;;3.28;0.95;;;22.10;99.90;;;21.58;100.00;101060.31;4168742;28;20485;-74
2023/07/11 07:45:52;;;;;;;5.18;1.10;;;22.10;99.90;;;21.66;100.00;101056.50;4168878;28;20488;-74
2023/07/11 07:47:52;;;;;;;3.53;1.25;;;22.20;99.90;;;21.77;100.00;101047.75;4174900;28;20045;-74
2023/07/11 07:49:55;;;;;;;4.50;1.02;;;22.30;99.90;;;21.96;100.00;101038.69;4150880;28;20022;-74
2023/07/11 07:51:55;;;;;;;2.67;1.23;;;22.40;99.90;;;22.02;100.00;101052.03;4167485;28;20056;-74
2023/07/11 07:53:56;;;;;;;4.13;1.30;;;22.40;99.90;;;22.12;100.00;101040.78;4168798;28;20017;-74
2023/07/11 07:56:12;;;;;;;1.92;0.60;;;22.60;99.90;;;22.78;100.00;101054.25;4168544;28;20029;-74
2023/07/11 07:58:14;;;;;;;2.35;0.90;;;23.00;99.90;;;23.53;100.00;101047.31;4167477;28;20579;-74
2023/07/11 08:00:16;;;;;;;3.67;1.10;;;23.60;99.90;;;23.97;93.73;101056.66;4167041;28;20104;-74
2023/07/11 08:02:17;;;;;;;4.05;0.88;;;24.10;99.90;;;24.16;89.72;101035.78;4167506;28;20480;-74
2023/07/11 08:04:18;;;;;;;3.60;1.88;;;24.40;99.90;;;24.31;89.65;101043.38;4167071;28;20033;-74
2023/07/11 08:06:19;;;;;;;2.72;0.90;;;24.50;99.90;;;24.42;87.46;101061.38;4167551;28;20485;-74
2023/07/11 08:08:21;;;;;;;4.78;1.00;;;24.70;99.90;;;24.44;86.48;101054.69;4167395;28;20029;-74
2023/07/11 08:10:21;;;;;;;3.40;1.05;;;24.80;99.90;;;24.51;86.32;101043.78;4168632;28;20424;-74
2023/07/11 08:12:22;;;;;;;2.35;0.85;;;24.80;99.90;;;24.47;86.08;101056.09;4167226;28;20048;-74
2023/07/11 08:14:23;;;;;;;1.75;0.75;;;24.90;99.90;;;24.32;86.20;101048.50;4168688;28;20088;-74
2023/07/11 08:16:24;;;;;;;3.05;0.95;;;24.80;99.90;;;24.38;86.36;101047.56;4168578;28;20032;-74
2023/07/11 08:18:25;;;;;;;3.08;0.70;;;24.80;99.90;;;24.62;83.96;101053.69;4168486;28;20032;-74
2023/07/11 08:20:26;;;;;;;3.38;0.82;;;24.90;99.90;;;24.87;81.76;101046.13;4183307;28;20048;-74